Skip Navigation Links
NOAA logo - Click to go to the NOAA homepage
NOAA's National Weather Service
Alaska Aviation Weather Unit
  NWS logo - Click to go to the NWS homepage
Left Navbar Graphic     17 AKDT = 01 GMT

   
NOAA is celebrating 200 years of science, service, and stewardship. Visit the NOAA 200th celebration Web site to learn more.
USA.gov is the U.S. Government's official Web portal to all Federal, state and local government Web resources and services.
Facebook
NWS on Facebook

Important Change Regarding the AAWU Web Presence

 

Over the last several months, the AAWU has been working to navigate its webpages to a nationally supported server. Security, as well as other needs, have necessitated the change.  In the process, we have made an effort to enhance the functionality of our website, as well as some of our products. As of June 27, 2017, aawu.arh.noaa.gov will be discontinued. The new AAWU web address is weather.gov/aawu. It is now live and will run in-parallel with the old site until it is discontinued. Please send any feedback or questions regarding the new webpages to nws.ar.aawu.webauthors@noaa.gov.  Thank you for your patience during this time of transition.
AAWU Home :: Display TAF Add Bookmark
TAF PAED 251900Z 2519/2701 22009KT 9999 SCT050 BKN200 QNH2992INS
      BECMG 2603/2604 VRB06KT 9999 FEW050 BKN180 QNH2988INS
      BECMG 2611/2612 20006KT 9999 BKN020 QNH2990INS TX22/2602Z
      TN11/2612Z=

METAR PAED 251958Z AUTO 24006KT 10SM FEW150 SCT180 SCT200 18/10 A2997= METAR PAED 252058Z AUTO 22007KT 10SM FEW130 SCT200 19/10 A2996= PAED 252144Z AUTO 22005KT 10SM -DZ FEW130 SCT150 BKN200 18/10 A2996= PAED 252147Z 22007KT 10SM FEW130 BKN160 BKN200 18/10 A2995= PAED 252148Z AUTO 22007KT 10SM -DZ FEW130 BKN160 BKN200 18/10 A2996= METAR PAED 252158Z AUTO 22008KT 10SM -DZ FEW130 SCT160 BKN200 18/10 A2996 RMK AO2 DZB44 SLP141 P0000 T01810103= PAED 252159Z AUTO 21007KT 10SM FEW130 SCT160 BKN200 18/10 A2995= METAR PAED 252258Z AUTO 22013KT 10SM FEW150 SCT180 SCT200 18/10 A2994= METAR PAED 252358Z AUTO 23012KT 10SM FEW200 18/10 A2994=
 Alaska TAF Map

NOAA's National Weather Service
Alaska Aviation Weather Unit
6930 Sand Lake Road
Anchorage, AK 99502-1845
Disclaimer
Credits
Glossary
Privacy Policy
About Us
Career Opportunities
Contact AAWU Internet Services Site last modified: April, 17th 2012